Calgary, Canada
Current Conditions -  °F | °C
As of 10:00 PM on Saturday 22 Nov 2014 (Local Time) from CYYC Reporting Station
Broken Clouds Broken Clouds  
Wind Chill: 20°   Ceiling: 8800
Heat Index: 28°   Visibility: 15mi
Dew Point: 27°   Wind: 9mph
Humidity: 93%   Direction: 360°N
Pressure: 29.58"   Gusts: NA
Location:  51.05°N, 114.06°W
Report Text: CYYC 230500Z 36008KT 15SM FEW017 BKN088 M02/M03 A2958 RMK SC2AC3 SLP053
Loading
Personal Weather Stations






























Interactive Weather Map New forecast layout! Learn more

10-Day Weather Forecast

Advertisements
Track Severe Weather on mobile